Time;durP1;ratioP1;P1;durP2;ratioP2;P2;SDS_P1;SDS_P2;PMS_P1;PMS_P2;Temp;Humidity;BMP_temperature;BMP_pressure;BME280_temperature;BME280_humidity;BME280_pressure;Samples;Min_cycle;Max_cycle;Signal;HPM_P1;HPM_P2
2022/06/21 00:00:59;;;;;;;7.50;6.68;;;;;;;;;;5029736;28;20033;-74
2022/06/21 00:03:26;;;;;;;8.38;6.57;;;;;;;;;;5030316;28;20053;-74
2022/06/21 00:05:53;;;;;;;9.15;7.03;;;;;;;;;;5029073;28;20116;-76
2022/06/21 00:08:26;;;;;;;8.68;7.30;;;;;;;;;;5022150;28;20013;-73
2022/06/21 00:10:52;;;;;;;7.95;6.95;;;;;;;;;;5027184;28;20040;-74
2022/06/21 00:13:30;;;;;;;8.32;6.72;;;;;;;;;;5030198;28;20444;-75
2022/06/21 00:15:59;;;;;;;7.90;6.55;;;;;;;;;;5021334;28;20038;-76
2022/06/21 00:18:26;;;;;;;7.88;6.82;;;;;;;;;;5029070;28;20037;-75
2022/06/21 00:20:53;;;;;;;11.65;7.65;;;;;;;;;;5029897;28;20121;-74
2022/06/21 00:23:21;;;;;;;10.57;8.00;;;;;;;;;;5029285;28;20030;-74
2022/06/21 00:25:47;;;;;;;9.45;7.85;;;;;;;;;;5021902;28;20112;-76
2022/06/21 00:28:14;;;;;;;12.25;7.78;;;;;;;;;;5029769;28;20547;-74
2022/06/21 00:30:40;;;;;;;10.50;7.68;;;;;;;;;;5028549;28;20057;-74
2022/06/21 00:33:11;;;;;;;8.45;7.03;;;;;;;;;;5029762;28;20084;-74
2022/06/21 00:35:37;;;;;;;10.23;7.88;;;;;;;;;;5030197;28;20036;-74
2022/06/21 00:38:02;;;;;;;8.57;7.38;;;;;;;;;;5029537;28;20396;-74
2022/06/21 00:40:31;;;;;;;12.40;8.50;;;;;;;;;;5029280;28;20044;-74
2022/06/21 00:43:05;;;;;;;16.48;9.13;;;;;;;;;;5029410;28;20029;-74
2022/06/21 00:45:37;;;;;;;11.13;9.30;;;;;;;;;;5019773;28;20387;-76
2022/06/21 00:48:11;;;;;;;14.50;9.75;;;;;;;;;;5029392;28;20084;-73
2022/06/21 00:50:41;;;;;;;12.63;9.63;;;;;;;;;;5027372;28;20033;-74
2022/06/21 00:53:30;;;;;;;12.05;8.80;;;;;;;;;;5029339;28;20065;-74
2022/06/21 00:56:17;;;;;;;11.65;8.93;;;;;;;;;;5029337;28;20025;-74
2022/06/21 00:58:43;;;;;;;11.68;8.68;;;;;;;;;;5027449;28;20033;-74
2022/06/21 01:01:20;;;;;;;13.02;7.93;;;;;;;;;;5029097;28;20029;-74
2022/06/21 01:03:51;;;;;;;7.82;7.05;;;;;;;;;;5029392;28;20090;-74
2022/06/21 01:06:21;;;;;;;8.70;7.30;;;;;;;;;;5019808;28;20030;-74
2022/06/21 01:08:53;;;;;;;9.93;7.07;;;;;;;;;;5027626;28;20025;-74
2022/06/21 01:11:24;;;;;;;10.52;7.03;;;;;;;;;;5024829;28;20071;-74
2022/06/21 01:13:53;;;;;;;8.30;7.18;;;;;;;;;;5028392;28;20483;-75
2022/06/21 01:16:19;;;;;;;8.65;7.20;;;;;;;;;;5020276;28;20383;-74
2022/06/21 01:18:46;;;;;;;8.90;6.80;;;;;;;;;;5027142;28;20048;-76
2022/06/21 01:21:15;;;;;;;10.23;7.30;;;;;;;;;;5028745;28;20025;-75
2022/06/21 01:23:43;;;;;;;8.98;6.70;;;;;;;;;;5021557;28;20034;-75
2022/06/21 01:26:33;;;;;;;6.85;6.15;;;;;;;;;;5028058;28;20466;-74
2022/06/21 01:29:01;;;;;;;7.82;6.28;;;;;;;;;;5027247;28;20498;-74
2022/06/21 01:31:28;;;;;;;7.95;6.35;;;;;;;;;;5029220;28;20467;-75
2022/06/21 01:33:53;;;;;;;7.45;5.60;;;;;;;;;;5027376;28;20442;-75
2022/06/21 01:36:24;;;;;;;8.48;6.90;;;;;;;;;;5028778;28;20033;-74
2022/06/21 01:38:59;;;;;;;8.02;7.03;;;;;;;;;;5027531;28;20033;-75
2022/06/21 01:41:35;;;;;;;7.20;6.45;;;;;;;;;;5028462;28;20030;-75
2022/06/21 01:44:06;;;;;;;8.88;6.78;;;;;;;;;;5029047;28;20033;-75
2022/06/21 01:46:32;;;;;;;9.18;6.93;;;;;;;;;;5028670;28;20033;-76
2022/06/21 01:49:06;;;;;;;6.72;5.80;;;;;;;;;;5027419;28;20014;-75
2022/06/21 01:51:35;;;;;;;7.45;6.40;;;;;;;;;;5028385;28;20040;-74
2022/06/21 01:54:04;;;;;;;8.20;6.35;;;;;;;;;;5028449;28;20029;-74
2022/06/21 01:56:34;;;;;;;7.93;6.85;;;;;;;;;;5028426;28;20041;-74
2022/06/21 01:59:33;;;;;;;8.05;6.68;;;;;;;;;;5026664;28;20028;-74
2022/06/21 02:02:10;;;;;;;9.77;7.07;;;;;;;;;;5027486;28;20025;-74
2022/06/21 02:04:51;;;;;;;8.27;7.10;;;;;;;;;;5027540;28;20261;-74
2022/06/21 02:07:22;;;;;;;7.45;6.35;;;;;;;;;;5020477;28;20394;-75
2022/06/21 02:10:11;;;;;;;7.47;6.47;;;;;;;;;;5026455;28;20109;-74
2022/06/21 02:12:51;;;;;;;6.60;5.75;;;;;;;;;;5028299;28;20022;-74
2022/06/21 02:15:34;;;;;;;7.97;5.85;;;;;;;;;;5028178;28;20033;-75
2022/06/21 02:18:00;;;;;;;7.43;6.10;;;;;;;;;;5027986;28;20160;-74
2022/06/21 02:20:44;;;;;;;6.85;6.07;;;;;;;;;;5027048;28;20277;-74
2022/06/21 02:23:13;;;;;;;7.32;6.43;;;;;;;;;;5027690;28;20057;-74
2022/06/21 02:25:39;;;;;;;10.07;6.82;;;;;;;;;;5019977;28;20132;-76
2022/06/21 02:28:08;;;;;;;6.82;6.13;;;;;;;;;;5029907;28;20021;-76
2022/06/21 02:30:36;;;;;;;6.85;5.90;;;;;;;;;;5030951;28;20033;-77
2022/06/21 02:33:05;;;;;;;6.88;6.18;;;;;;;;;;5032476;28;20470;-74
2022/06/21 02:35:51;;;;;;;7.28;6.00;;;;;;;;;;5032223;28;20371;-75
2022/06/21 02:38:32;;;;;;;6.93;5.93;;;;;;;;;;5031725;28;20096;-76
2022/06/21 02:41:03;;;;;;;7.70;6.00;;;;;;;;;;5029652;28;20033;-75
2022/06/21 02:43:37;;;;;;;6.68;5.95;;;;;;;;;;5031404;28;20036;-76
2022/06/21 02:46:08;;;;;;;9.52;6.20;;;;;;;;;;5031287;28;20026;-75
2022/06/21 02:48:40;;;;;;;6.35;4.97;;;;;;;;;;5030367;28;20029;-75
2022/06/21 02:51:10;;;;;;;7.82;5.90;;;;;;;;;;5030727;28;20053;-77
2022/06/21 02:53:40;;;;;;;6.38;5.43;;;;;;;;;;5031976;28;20483;-74
2022/06/21 02:56:12;;;;;;;6.60;5.90;;;;;;;;;;5031525;28;20036;-75
2022/06/21 02:58:46;;;;;;;5.88;5.28;;;;;;;;;;5025479;28;20026;-75
2022/06/21 03:01:18;;;;;;;6.00;5.40;;;;;;;;;;5031415;28;20521;-75
2022/06/21 03:03:45;;;;;;;;;;;;;;;;;;5032683;28;20071;-76
2022/06/21 03:06:13;;;;;;;5.93;5.32;;;;;;;;;;5031596;28;19956;-76
2022/06/21 03:09:08;;;;;;;5.65;4.90;;;;;;;;;;5025476;28;20364;-74
2022/06/21 03:11:41;;;;;;;6.15;5.07;;;;;;;;;;5025205;28;20041;-75
2022/06/21 03:14:11;;;;;;;6.80;5.22;;;;;;;;;;5031409;28;20032;-75
2022/06/21 03:16:36;;;;;;;6.00;5.25;;;;;;;;;;5031781;28;20391;-76
2022/06/21 03:19:06;;;;;;;6.82;5.68;;;;;;;;;;5025840;28;20031;-77
2022/06/21 03:21:34;;;;;;;7.88;5.22;;;;;;;;;;5031608;28;20428;-76
2022/06/21 03:24:05;;;;;;;9.20;5.47;;;;;;;;;;5030008;28;20478;-76
2022/06/21 03:26:32;;;;;;;6.90;5.40;;;;;;;;;;5025882;28;20029;-77
2022/06/21 03:28:58;;;;;;;7.38;5.80;;;;;;;;;;5029828;28;20382;-78
2022/06/21 03:31:30;;;;;;;9.32;5.95;;;;;;;;;;5024213;28;20074;-77
2022/06/21 03:34:01;;;;;;;6.22;5.63;;;;;;;;;;5030922;28;20099;-76
2022/06/21 03:36:27;;;;;;;7.45;5.75;;;;;;;;;;5031629;28;20044;-76
2022/06/21 03:39:12;;;;;;;9.43;5.75;;;;;;;;;;5029756;28;20033;-76
2022/06/21 03:41:43;;;;;;;8.63;6.05;;;;;;;;;;5025598;28;20041;-75
2022/06/21 03:44:24;;;;;;;6.70;6.00;;;;;;;;;;5029516;28;20352;-76
2022/06/21 03:47:01;;;;;;;6.20;5.60;;;;;;;;;;5030221;28;20084;-76
2022/06/21 03:49:42;;;;;;;6.68;5.60;;;;;;;;;;5018331;28;20037;-76
2022/06/21 03:52:49;;;;;;;7.88;6.30;;;;;;;;;;5029658;28;20380;-75
2022/06/21 03:55:21;;;;;;;8.10;6.38;;;;;;;;;;5029282;28;20123;-76
2022/06/21 03:58:01;;;;;;;8.05;6.43;;;;;;;;;;5030804;28;20030;-75
2022/06/21 04:00:33;;;;;;;8.75;6.85;;;;;;;;;;5018233;28;20480;-74
2022/06/21 04:03:23;;;;;;;9.77;7.43;;;;;;;;;;5026388;28;20586;-74
2022/06/21 04:06:04;;;;;;;9.55;7.85;;;;;;;;;;5029202;28;20029;-75
2022/06/21 04:08:40;;;;;;;11.60;8.73;;;;;;;;;;5030271;28;20029;-75
2022/06/21 04:11:29;;;;;;;12.30;8.57;;;;;;;;;;5030297;28;20033;-75
2022/06/21 04:14:12;;;;;;;11.68;8.93;;;;;;;;;;5028894;28;20029;-73
2022/06/21 04:17:07;;;;;;;13.90;9.05;;;;;;;;;;5029571;28;20029;-75
2022/06/21 04:19:38;;;;;;;15.02;9.77;;;;;;;;;;5024372;28;20060;-76
2022/06/21 04:22:23;;;;;;;12.50;10.07;;;;;;;;;;5029929;28;20112;-74
2022/06/21 04:25:10;;;;;;;15.80;10.27;;;;;;;;;;5028929;28;20057;-74
2022/06/21 04:27:52;;;;;;;10.90;9.35;;;;;;;;;;5030135;28;20139;-76
2022/06/21 04:30:23;;;;;;;11.50;8.80;;;;;;;;;;5029828;28;20037;-76
2022/06/21 04:33:20;;;;;;;11.77;8.27;;;;;;;;;;5030121;28;20060;-75
2022/06/21 04:35:58;;;;;;;9.75;7.72;;;;;;;;;;5013059;28;20052;-74
2022/06/21 04:38:38;;;;;;;9.65;8.38;;;;;;;;;;5029928;28;20033;-75
2022/06/21 04:41:14;;;;;;;9.50;7.78;;;;;;;;;;5029574;28;20021;-75
2022/06/21 04:43:45;;;;;;;12.10;8.73;;;;;;;;;;5028624;28;20025;-74
2022/06/21 04:46:18;;;;;;;13.05;8.60;;;;;;;;;;5028102;28;20083;-74
2022/06/21 04:49:06;;;;;;;12.05;8.45;;;;;;;;;;5029500;28;20287;-75
2022/06/21 04:51:36;;;;;;;11.98;8.93;;;;;;;;;;5029471;28;20040;-74
2022/06/21 04:54:10;;;;;;;12.25;7.97;;;;;;;;;;5028024;28;20436;-76
2022/06/21 04:56:45;;;;;;;10.90;8.18;;;;;;;;;;5029427;28;20033;-77
2022/06/21 04:59:20;;;;;;;16.40;9.07;;;;;;;;;;5029340;28;20491;-75
2022/06/21 05:01:45;;;;;;;12.77;8.95;;;;;;;;;;5029456;28;20113;-75
2022/06/21 05:04:22;;;;;;;13.45;9.55;;;;;;;;;;5026365;28;20111;-76
2022/06/21 05:06:49;;;;;;;11.52;9.07;;;;;;;;;;5029172;28;20029;-76
2022/06/21 05:09:19;;;;;;;11.15;8.60;;;;;;;;;;5029276;28;20037;-74
2022/06/21 05:11:45;;;;;;;12.05;9.82;;;;;;;;;;5020346;28;20120;-75
2022/06/21 05:14:33;;;;;;;12.88;9.65;;;;;;;;;;5028484;28;20040;-75
2022/06/21 05:16:59;;;;;;;11.55;8.93;;;;;;;;;;5026710;28;20033;-76
2022/06/21 05:19:37;;;;;;;12.10;9.45;;;;;;;;;;5025386;28;20037;-76
2022/06/21 05:22:15;;;;;;;12.05;8.13;;;;;;;;;;5028553;28;20339;-73
2022/06/21 05:24:40;;;;;;;11.40;8.00;;;;;;;;;;5027691;28;20026;-76
2022/06/21 05:27:26;;;;;;;10.43;8.63;;;;;;;;;;5026863;28;20032;-75
2022/06/21 05:30:09;;;;;;;10.95;8.30;;;;;;;;;;5018801;28;20038;-76
2022/06/21 05:32:42;;;;;;;10.70;8.27;;;;;;;;;;5028730;28;20060;-75
2022/06/21 05:35:16;;;;;;;15.60;8.93;;;;;;;;;;5028643;28;20127;-76
2022/06/21 05:38:04;;;;;;;11.82;9.07;;;;;;;;;;5027751;28;20036;-75
2022/06/21 05:40:41;;;;;;;12.55;8.70;;;;;;;;;;5022708;28;20033;-76
2022/06/21 05:43:18;;;;;;;11.15;8.60;;;;;;;;;;5029198;28;20368;-75
2022/06/21 05:45:51;;;;;;;10.50;8.13;;;;;;;;;;5026251;28;20032;-74
2022/06/21 05:48:22;;;;;;;12.45;8.23;;;;;;;;;;5024628;28;20033;-76
2022/06/21 05:50:47;;;;;;;10.65;8.25;;;;;;;;;;5027395;28;20033;-74
2022/06/21 05:53:22;;;;;;;11.32;8.40;;;;;;;;;;5026525;28;20044;-75
2022/06/21 05:55:48;;;;;;;9.80;7.82;;;;;;;;;;5026397;28;20297;-75
2022/06/21 05:58:23;;;;;;;10.35;7.90;;;;;;;;;;5028153;28;20412;-75
2022/06/21 06:01:21;;;;;;;9.48;7.38;;;;;;;;;;5028621;28;20452;-75
2022/06/21 06:04:08;;;;;;;9.10;7.10;;;;;;;;;;5025678;28;20116;-75
2022/06/21 06:06:36;;;;;;;7.90;6.68;;;;;;;;;;5016935;28;20868;-75
2022/06/21 06:09:08;;;;;;;9.20;6.28;;;;;;;;;;5022580;28;20340;-76
2022/06/21 06:12:00;;;;;;;;;;;;;;;;;;5022497;28;20083;-75
2022/06/21 06:14:54;;;;;;;9.77;7.32;;;;;;;;;;5014858;28;19966;-74
2022/06/21 06:17:29;;;;;;;13.82;7.40;;;;;;;;;;5023593;28;20033;-74
2022/06/21 06:20:04;;;;;;;10.88;7.28;;;;;;;;;;5023747;28;20034;-75
2022/06/21 06:22:42;;;;;;;8.95;6.90;;;;;;;;;;5018133;28;20047;-75
2022/06/21 06:25:27;;;;;;;9.05;7.47;;;;;;;;;;5019851;28;20029;-75
2022/06/21 06:28:31;;;;;;;8.68;7.78;;;;;;;;;;5023600;28;20370;-75
2022/06/21 06:31:02;;;;;;;8.30;6.78;;;;;;;;;;5023406;28;20087;-75
2022/06/21 06:33:46;;;;;;;8.77;6.85;;;;;;;;;;5022258;28;20287;-76
2022/06/21 06:36:17;;;;;;;10.15;6.75;;;;;;;;;;5022365;28;20082;-74
2022/06/21 06:38:44;;;;;;;8.00;6.80;;;;;;;;;;5022467;28;20177;-76
2022/06/21 06:41:19;;;;;;;8.57;7.00;;;;;;;;;;5025000;28;20068;-74
2022/06/21 06:43:53;;;;;;;7.32;6.63;;;;;;;;;;5023784;28;20057;-75
2022/06/21 06:46:39;;;;;;;6.57;5.88;;;;;;;;;;5022989;28;20033;-75
2022/06/21 06:49:34;;;;;;;9.63;6.82;;;;;;;;;;5021686;28;20065;-77
2022/06/21 06:52:36;;;;;;;8.98;7.30;;;;;;;;;;5020536;28;20061;-77
2022/06/21 06:55:04;;;;;;;9.35;6.80;;;;;;;;;;4998834;28;20041;-74
2022/06/21 06:57:40;;;;;;;8.20;7.15;;;;;;;;;;5023101;28;20506;-79
2022/06/21 07:00:14;;;;;;;17.63;7.03;;;;;;;;;;5031018;28;20355;-75
2022/06/21 07:02:47;;;;;;;9.93;7.60;;;;;;;;;;5022332;28;20021;-75
2022/06/21 07:05:21;;;;;;;10.60;6.85;;;;;;;;;;5023950;28;20033;-76
2022/06/21 07:07:51;;;;;;;10.15;7.28;;;;;;;;;;5024137;28;20029;-75
2022/06/21 07:10:19;;;;;;;10.38;6.65;;;;;;;;;;5023328;28;20026;-72
2022/06/21 07:12:46;;;;;;;8.25;5.97;;;;;;;;;;5024353;28;20033;-76
2022/06/21 07:15:13;;;;;;;10.43;6.35;;;;;;;;;;5023869;28;20029;-74
2022/06/21 07:17:52;;;;;;;8.65;6.15;;;;;;;;;;5027788;28;20030;-75
2022/06/21 07:20:30;;;;;;;8.50;6.15;;;;;;;;;;5020102;28;20102;-75
2022/06/21 07:22:56;;;;;;;7.00;5.55;;;;;;;;;;5023532;28;20041;-77
2022/06/21 07:25:31;;;;;;;11.05;5.82;;;;;;;;;;5025637;28;20030;-75
2022/06/21 07:28:21;;;;;;;9.30;5.97;;;;;;;;;;5026561;28;20103;-78
2022/06/21 07:30:49;;;;;;;7.43;4.90;;;;;;;;;;5023487;28;20037;-76
2022/06/21 07:33:30;;;;;;;11.50;5.22;;;;;;;;;;5027193;28;20032;-77
2022/06/21 07:36:18;;;;;;;7.80;4.70;;;;;;;;;;5025728;28;20033;-78
2022/06/21 07:38:50;;;;;;;6.30;5.38;;;;;;;;;;5026246;28;20105;-78
2022/06/21 07:41:18;;;;;;;;;;;;;;;;;;5024944;28;20025;-75
2022/06/21 07:43:50;;;;;;;6.45;4.35;;;;;;;;;;5026328;28;19920;-81
2022/06/21 07:46:37;;;;;;;5.93;3.97;;;;;;;;;;5024788;28;20103;-76
2022/06/21 07:49:26;;;;;;;7.68;4.53;;;;;;;;;;5026123;28;20083;-75
2022/06/21 07:51:59;;;;;;;5.07;4.32;;;;;;;;;;5027018;28;20126;-75
2022/06/21 07:54:35;;;;;;;5.07;3.90;;;;;;;;;;5019712;28;20038;-76
2022/06/21 07:57:24;;;;;;;4.53;3.13;;;;;;;;;;5024068;28;20034;-77
2022/06/21 07:59:54;;;;;;;6.82;3.30;;;;;;;;;;5025390;28;20057;-75
2022/06/21 08:08:27;;;;;;;4.35;3.30;;;;;;;;;;5025735;28;20079;-74
2022/06/21 08:10:58;;;;;;;4.78;2.90;;;;;;;;;;5025598;28;20029;-75
2022/06/21 08:13:24;;;;;;;3.75;3.00;;;;;;;;;;5026167;28;20055;-77
2022/06/21 08:16:05;;;;;;;4.72;2.80;;;;;;;;;;5026367;28;20047;-72
2022/06/21 08:18:47;;;;;;;5.43;2.80;;;;;;;;;;5019074;28;20025;-72
2022/06/21 08:21:25;;;;;;;5.07;3.10;;;;;;;;;;5025564;28;20063;-73
2022/06/21 08:24:00;;;;;;;4.68;2.95;;;;;;;;;;5021452;28;20260;-74
2022/06/21 08:26:39;;;;;;;6.35;2.97;;;;;;;;;;5021544;28;20226;-73
2022/06/21 08:29:11;;;;;;;6.43;3.20;;;;;;;;;;5024426;28;20025;-73
2022/06/21 08:31:41;;;;;;;4.15;3.00;;;;;;;;;;5025874;28;20045;-73
2022/06/21 08:34:18;;;;;;;6.63;2.70;;;;;;;;;;5024937;28;20025;-74
2022/06/21 08:36:50;;;;;;;5.18;3.10;;;;;;;;;;5023706;28;20045;-75
2022/06/21 08:39:39;;;;;;;5.57;2.75;;;;;;;;;;5025759;28;20052;-75
2022/06/21 08:42:49;;;;;;;5.55;2.28;;;;;;;;;;5020140;28;20044;-72
2022/06/21 08:45:43;;;;;;;4.63;2.50;;;;;;;;;;5020987;28;20043;-73
2022/06/21 08:48:14;;;;;;;3.78;2.25;;;;;;;;;;5025006;28;20017;-74
2022/06/21 08:51:00;;;;;;;5.97;2.42;;;;;;;;;;5026425;28;20022;-75
2022/06/21 08:54:08;;;;;;;6.55;2.70;;;;;;;;;;5024927;28;20475;-71
2022/06/21 08:57:07;;;;;;;4.20;2.22;;;;;;;;;;5022735;28;20038;-72
2022/06/21 08:59:45;;;;;;;8.05;2.67;;;;;;;;;;5021358;28;20132;-72
2022/06/21 09:02:15;;;;;;;4.65;2.25;;;;;;;;;;5025480;28;20143;-74
2022/06/21 09:04:43;;;;;;;4.50;2.22;;;;;;;;;;5023144;28;20037;-72
2022/06/21 09:07:30;;;;;;;5.68;2.95;;;;;;;;;;5024255;28;20029;-73
2022/06/21 09:09:55;;;;;;;4.72;2.50;;;;;;;;;;5023782;28;20065;-71
2022/06/21 09:12:53;;;;;;;5.43;2.60;;;;;;;;;;5025891;28;20067;-75
2022/06/21 09:15:45;;;;;;;6.18;2.60;;;;;;;;;;5025338;28;20384;-71
2022/06/21 09:18:29;;;;;;;6.68;2.90;;;;;;;;;;5021816;28;20178;-74
2022/06/21 09:20:57;;;;;;;4.03;2.50;;;;;;;;;;5024944;28;20459;-74
2022/06/21 09:23:47;;;;;;;5.55;2.72;;;;;;;;;;5024619;28;20026;-73
2022/06/21 09:26:51;;;;;;;5.68;2.13;;;;;;;;;;5023705;28;20044;-74
2022/06/21 09:29:26;;;;;;;7.78;2.40;;;;;;;;;;5022435;28;20041;-74
2022/06/21 09:31:59;;;;;;;3.70;2.15;;;;;;;;;;5023187;28;20395;-76
2022/06/21 09:34:33;;;;;;;5.00;2.17;;;;;;;;;;5016538;28;20039;-75
2022/06/21 09:37:01;;;;;;;3.40;2.17;;;;;;;;;;5020440;28;20033;-75
2022/06/21 09:39:40;;;;;;;3.08;2.00;;;;;;;;;;5017370;28;20592;-74
2022/06/21 09:42:19;;;;;;;5.20;2.10;;;;;;;;;;5026502;28;20049;-77
2022/06/21 09:44:51;;;;;;;3.97;1.92;;;;;;;;;;5022186;28;20037;-73
2022/06/21 09:47:26;;;;;;;;;;;;;;;;;;5024776;28;20030;-74
2022/06/21 09:49:55;;;;;;;5.22;2.05;;;;;;;;;;5022751;28;20491;-74
2022/06/21 09:52:35;;;;;;;5.82;1.88;;;;;;;;;;5017988;28;20305;-75
2022/06/21 09:55:40;;;;;;;5.80;1.85;;;;;;;;;;5023585;28;20430;-73
2022/06/21 09:58:19;;;;;;;4.55;1.80;;;;;;;;;;5021242;28;20081;-73
2022/06/21 10:00:51;;;;;;;4.78;1.80;;;;;;;;;;5005533;28;20541;-73
2022/06/21 10:03:45;;;;;;;3.90;1.70;;;;;;;;;;5025264;28;20063;-75
2022/06/21 10:06:19;;;;;;;3.80;1.85;;;;;;;;;;5024918;28;20039;-76
2022/06/21 10:09:06;;;;;;;5.35;1.90;;;;;;;;;;5024114;28;20033;-72
2022/06/21 10:11:50;;;;;;;4.43;1.70;;;;;;;;;;5015560;28;20487;-76
2022/06/21 10:14:44;;;;;;;6.13;1.88;;;;;;;;;;5023234;28;20124;-73
2022/06/21 10:17:25;;;;;;;4.03;1.55;;;;;;;;;;5027579;28;20079;-74
2022/06/21 10:19:50;;;;;;;;;;;;;;;;;;5022759;28;20036;-72
2022/06/21 10:22:31;;;;;;;4.57;1.87;;;;;;;;;;5026175;28;20334;-73
2022/06/21 10:25:08;;;;;;;3.73;2.40;;;;;;;;;;5028288;28;20033;-71
2022/06/21 10:27:53;;;;;;;3.80;2.00;;;;;;;;;;5020879;28;20033;-73
2022/06/21 10:30:43;;;;;;;3.92;1.60;;;;;;;;;;5027548;28;20022;-72
2022/06/21 10:33:27;;;;;;;3.35;1.80;;;;;;;;;;5028025;28;20447;-74
2022/06/21 10:36:40;;;;;;;4.75;1.80;;;;;;;;;;5027284;28;20030;-72
2022/06/21 10:39:11;;;;;;;2.85;1.60;;;;;;;;;;5023083;28;20367;-72
2022/06/21 10:45:13;;;;;;;3.50;1.52;;;;;;;;;;5027950;28;20091;-74
2022/06/21 10:48:09;;;;;;;2.72;1.65;;;;;;;;;;5027530;28;20442;-70
2022/06/21 10:51:26;;;;;;;4.13;1.70;;;;;;;;;;5012345;28;20387;-72
2022/06/21 10:54:10;;;;;;;2.63;1.55;;;;;;;;;;4987290;28;20041;-71
2022/06/21 10:57:10;;;;;;;3.70;1.70;;;;;;;;;;5011963;28;20562;-71
2022/06/21 11:02:44;;;;;;;2.88;1.70;;;;;;;;;;5031485;28;20498;-73
2022/06/21 11:05:39;;;;;;;4.57;1.58;;;;;;;;;;5031751;28;20411;-72
2022/06/21 11:08:37;;;;;;;1.98;1.58;;;;;;;;;;5031300;28;20273;-73
2022/06/21 11:11:23;;;;;;;2.40;1.55;;;;;;;;;;5030740;28;20030;-74
2022/06/21 11:13:59;;;;;;;2.67;1.55;;;;;;;;;;5031358;28;20025;-73
2022/06/21 11:16:37;;;;;;;4.30;1.77;;;;;;;;;;5031658;28;20048;-73
2022/06/21 11:19:19;;;;;;;4.03;1.70;;;;;;;;;;5031086;28;20029;-73
2022/06/21 11:22:15;;;;;;;3.35;1.75;;;;;;;;;;5031363;28;20025;-71
2022/06/21 11:24:56;;;;;;;3.05;1.80;;;;;;;;;;5026564;28;20116;-71
2022/06/21 11:27:43;;;;;;;5.90;2.10;;;;;;;;;;5030201;28;20521;-74
2022/06/21 11:30:17;;;;;;;3.95;2.00;;;;;;;;;;5030806;28;20033;-74
2022/06/21 11:33:14;;;;;;;4.55;1.65;;;;;;;;;;5030943;28;20500;-74
2022/06/21 11:36:01;;;;;;;4.97;1.92;;;;;;;;;;5028421;28;20479;-74
2022/06/21 11:38:47;;;;;;;4.25;2.13;;;;;;;;;;5023741;28;20471;-71
2022/06/21 11:42:04;;;;;;;5.53;2.20;;;;;;;;;;5009375;28;21006;-73
2022/06/21 11:44:33;;;;;;;3.22;1.98;;;;;;;;;;5030698;28;20045;-75
2022/06/21 11:47:10;;;;;;;7.95;2.25;;;;;;;;;;5029754;28;20061;-71
2022/06/21 11:49:36;;;;;;;3.33;1.98;;;;;;;;;;5025527;28;20071;-75
2022/06/21 11:52:35;;;;;;;3.90;2.35;;;;;;;;;;5020521;28;20036;-71
2022/06/21 11:55:31;;;;;;;4.07;2.00;;;;;;;;;;5028735;28;20558;-75
2022/06/21 11:58:24;;;;;;;4.93;2.38;;;;;;;;;;5026889;28;20132;-76
2022/06/21 12:00:58;;;;;;;4.57;2.40;;;;;;;;;;5028446;28;20052;-76
2022/06/21 12:03:37;;;;;;;4.13;2.25;;;;;;;;;;5030060;28;20022;-73
2022/06/21 12:06:29;;;;;;;4.03;2.47;;;;;;;;;;5029955;28;20029;-72
2022/06/21 12:09:00;;;;;;;;;;;;;;;;;;5020917;28;20475;-72
2022/06/21 12:11:48;;;;;;;3.10;2.60;;;;;;;;;;5020373;28;19913;-73
2022/06/21 12:14:43;;;;;;;6.53;2.63;;;;;;;;;;5029506;28;20033;-71
2022/06/21 12:17:21;;;;;;;3.83;2.40;;;;;;;;;;5030467;28;20376;-72
2022/06/21 12:19:52;;;;;;;3.78;2.50;;;;;;;;;;5029695;28;20036;-71
2022/06/21 12:22:38;;;;;;;3.57;2.33;;;;;;;;;;5032526;28;20038;-73
2022/06/21 12:25:04;;;;;;;6.07;2.47;;;;;;;;;;5032405;28;20289;-74
2022/06/21 12:27:30;;;;;;;5.07;2.80;;;;;;;;;;5038083;28;20028;-73
2022/06/21 12:29:59;;;;;;;6.28;2.65;;;;;;;;;;5028263;28;20060;-71
2022/06/21 12:32:25;;;;;;;4.57;2.97;;;;;;;;;;5029525;28;20033;-73
2022/06/21 12:35:02;;;;;;;4.93;2.67;;;;;;;;;;5029841;28;20052;-74
2022/06/21 12:37:37;;;;;;;4.72;2.67;;;;;;;;;;5029702;28;20051;-72
2022/06/21 12:40:34;;;;;;;3.30;2.70;;;;;;;;;;5029132;28;20034;-73
2022/06/21 12:43:22;;;;;;;7.95;3.10;;;;;;;;;;5028050;28;20029;-73
2022/06/21 12:46:05;;;;;;;3.97;2.83;;;;;;;;;;5029685;28;20077;-73
2022/06/21 12:48:58;;;;;;;3.17;2.53;;;;;;;;;;5018597;28;20087;-74
2022/06/21 12:51:58;;;;;;;6.28;2.83;;;;;;;;;;5019554;28;20033;-73
2022/06/21 12:54:45;;;;;;;6.57;3.00;;;;;;;;;;5025232;28;20030;-73
2022/06/21 12:57:41;;;;;;;6.20;2.70;;;;;;;;;;5026325;28;20021;-72
2022/06/21 13:00:15;;;;;;;3.78;2.40;;;;;;;;;;5027981;28;20602;-74
2022/06/21 13:02:52;;;;;;;4.28;2.33;;;;;;;;;;5027970;28;20036;-74
2022/06/21 13:05:31;;;;;;;4.13;2.75;;;;;;;;;;5028707;28;20132;-73
2022/06/21 13:08:22;;;;;;;5.68;2.60;;;;;;;;;;5026914;28;20025;-73
2022/06/21 13:11:26;;;;;;;6.60;2.97;;;;;;;;;;5024373;28;20026;-73
2022/06/21 13:14:21;;;;;;;5.05;2.58;;;;;;;;;;5024131;28;20025;-73
2022/06/21 13:17:07;;;;;;;2.95;2.40;;;;;;;;;;4986592;28;20126;-73
2022/06/21 13:19:46;;;;;;;5.10;2.38;;;;;;;;;;5022103;28;20068;-76
2022/06/21 13:22:34;;;;;;;5.57;2.20;;;;;;;;;;5032468;28;20111;-74
2022/06/21 13:25:09;;;;;;;5.75;2.83;;;;;;;;;;5029816;28;20044;-72
2022/06/21 13:28:07;;;;;;;3.78;2.47;;;;;;;;;;5028867;28;20479;-74
2022/06/21 13:30:43;;;;;;;7.50;2.60;;;;;;;;;;5028553;28;20063;-77
2022/06/21 13:33:16;;;;;;;5.97;2.80;;;;;;;;;;5025879;28;20748;-73
2022/06/21 13:35:50;;;;;;;3.40;2.40;;;;;;;;;;5028586;28;20052;-74
2022/06/21 13:38:18;;;;;;;4.25;2.45;;;;;;;;;;5027716;28;20026;-75
2022/06/21 13:40:55;;;;;;;2.85;2.10;;;;;;;;;;5026942;28;20060;-74
2022/06/21 13:43:39;;;;;;;2.90;2.50;;;;;;;;;;5028143;28;20026;-74
2022/06/21 13:46:21;;;;;;;5.97;2.55;;;;;;;;;;5028308;28;20394;-76
2022/06/21 13:48:56;;;;;;;4.95;2.38;;;;;;;;;;5025744;28;20053;-73
2022/06/21 13:51:29;;;;;;;3.40;2.28;;;;;;;;;;5021742;28;20072;-73
2022/06/21 13:54:03;;;;;;;4.63;2.63;;;;;;;;;;5025022;28;20022;-76
2022/06/21 13:56:47;;;;;;;3.13;2.38;;;;;;;;;;5028349;28;20491;-75
2022/06/21 13:59:17;;;;;;;9.07;3.10;;;;;;;;;;5026864;28;20447;-76
2022/06/21 14:02:06;;;;;;;6.82;2.78;;;;;;;;;;5029416;28;20563;-72
2022/06/21 14:04:48;;;;;;;2.58;2.35;;;;;;;;;;5031915;28;20392;-77
2022/06/21 14:07:21;;;;;;;5.22;2.55;;;;;;;;;;5031307;28;20060;-77
2022/06/21 14:10:04;;;;;;;3.40;2.38;;;;;;;;;;5026491;28;20144;-76
2022/06/21 14:12:52;;;;;;;5.43;2.30;;;;;;;;;;5020671;28;20037;-75
2022/06/21 14:15:21;;;;;;;4.45;2.63;;;;;;;;;;5016909;28;20076;-75
2022/06/21 14:17:49;;;;;;;3.33;2.28;;;;;;;;;;5025341;28;20052;-74
2022/06/21 14:20:21;;;;;;;8.18;2.47;;;;;;;;;;5026866;28;20099;-77
2022/06/21 14:22:53;;;;;;;2.88;2.35;;;;;;;;;;5028617;28;20029;-73
2022/06/21 14:25:33;;;;;;;;;;;;;;;;;;5031255;28;20029;-74
2022/06/21 14:28:29;;;;;;;2.80;2.15;;;;;;;;;;5022104;28;19956;-74
2022/06/21 14:31:26;;;;;;;3.13;2.28;;;;;;;;;;5027451;28;20339;-74
2022/06/21 14:34:16;;;;;;;3.55;2.17;;;;;;;;;;5028608;28;20102;-74
2022/06/21 14:36:51;;;;;;;2.88;2.30;;;;;;;;;;5030980;28;20034;-77
2022/06/21 14:39:39;;;;;;;3.67;2.03;;;;;;;;;;5030082;28;20487;-74
2022/06/21 14:42:32;;;;;;;3.28;2.28;;;;;;;;;;5031061;28;20076;-76
2022/06/21 14:45:19;;;;;;;3.83;2.30;;;;;;;;;;5022380;28;20407;-75
2022/06/21 14:47:52;;;;;;;3.63;2.25;;;;;;;;;;5028834;28;20025;-78
2022/06/21 14:50:33;;;;;;;4.05;2.00;;;;;;;;;;5029758;28;20021;-74
2022/06/21 14:53:04;;;;;;;3.67;2.25;;;;;;;;;;5031947;28;20322;-74
2022/06/21 14:55:51;;;;;;;4.93;2.47;;;;;;;;;;5030618;28;20033;-74
2022/06/21 14:58:41;;;;;;;3.88;2.70;;;;;;;;;;5028654;28;20811;-75
2022/06/21 15:01:24;;;;;;;2.58;2.22;;;;;;;;;;5030005;28;20025;-75
2022/06/21 15:04:05;;;;;;;5.03;2.28;;;;;;;;;;5027943;28;20033;-74
2022/06/21 15:06:35;;;;;;;3.93;2.20;;;;;;;;;;5025735;28;20502;-78
2022/06/21 15:09:19;;;;;;;3.25;2.10;;;;;;;;;;5030461;28;20041;-75
2022/06/21 15:11:56;;;;;;;3.67;2.42;;;;;;;;;;5031542;28;20087;-74
2022/06/21 15:14:38;;;;;;;3.88;2.28;;;;;;;;;;5035959;28;20079;-75
2022/06/21 15:17:36;;;;;;;2.72;2.10;;;;;;;;;;5029952;28;20029;-74
2022/06/21 15:20:15;;;;;;;4.00;2.67;;;;;;;;;;5029119;28;20071;-76
2022/06/21 15:23:18;;;;;;;5.38;2.40;;;;;;;;;;5030462;28;20426;-77
2022/06/21 15:26:10;;;;;;;4.05;2.40;;;;;;;;;;5024607;28;20025;-76
2022/06/21 15:28:45;;;;;;;4.20;2.20;;;;;;;;;;5024686;28;20029;-75
2022/06/21 15:31:14;;;;;;;2.83;2.17;;;;;;;;;;5030659;28;20037;-73
2022/06/21 15:33:49;;;;;;;4.15;2.17;;;;;;;;;;5031353;28;20028;-75
2022/06/21 15:36:30;;;;;;;4.43;2.10;;;;;;;;;;5030234;28;20037;-75
2022/06/21 15:39:04;;;;;;;3.55;2.15;;;;;;;;;;5029320;28;20530;-73
2022/06/21 15:41:45;;;;;;;6.15;2.67;;;;;;;;;;5023919;28;20554;-73
2022/06/21 15:44:36;;;;;;;4.60;2.20;;;;;;;;;;5030696;28;20034;-76
2022/06/21 15:50:48;;;;;;;3.33;2.40;;;;;;;;;;5023047;28;20283;-75
2022/06/21 15:53:40;;;;;;;4.07;2.20;;;;;;;;;;5030943;28;20030;-77
2022/06/21 15:56:23;;;;;;;3.80;2.15;;;;;;;;;;5021072;28;20124;-73
2022/06/21 15:58:56;;;;;;;2.72;2.33;;;;;;;;;;5029174;28;20121;-75
2022/06/21 16:01:28;;;;;;;3.38;2.38;;;;;;;;;;5011855;28;20017;-73
2022/06/21 16:04:29;;;;;;;7.10;2.20;;;;;;;;;;5027007;28;20085;-75
2022/06/21 16:06:59;;;;;;;5.60;2.30;;;;;;;;;;5027402;28;20053;-76